Airfield :
LOGIN :

Register | Disclaimer

   EN    FR    IT 

 










Legend :    VFR   Marginal VFR   IFR   Intensive IFR   Very Intensive IFR
Visi :
Ceiling :
>= 8 km
>= 3000ft
5 to 8 km
1000 to 3000 ft
1500m to 5 km
500 to 1000 ft
800 to 1500m
200 to 500 ft
< 800m
< 200 ft
Symbols :   Thunderstorms  Fog  Heavy snow  Heavy precipitations  Wind > 20 kt
SIGMETs :     Misc.  Thunderstorms  Icing  Turbulence  Mountain Waves  Volcanic Ashes






- Airport Elevation : 26 ft
- IATA code : GLA


EGPF - Glasgow

CURRENT METAR :
  • 282220Z AUTO 23019KT 9999 //////TCU 08/06 Q0995

EXPIRED METARs :
  • 282150Z AUTO 21015KT 9999 -RA FEW024/// SCT031/// BKN044/// //////CB 08/06 Q0995 RERA
  • 282120Z AUTO 22016KT 9000 -RA SCT026/// BKN030/// OVC043/// //////TCU 08/06 Q0994
  • 282050Z AUTO 22012KT 9999 -RA BKN031/// BKN043/// //////TCU 08/06 Q0994
  • 282020Z AUTO 22010KT 9999 -RA SCT032/// BKN047/// //////CB 07/06 Q0994
  • 281950Z AUTO 23019KT 8000 -RA BKN040/// //////TCU 08/06 Q0993

TAF TAF EGPF
Valid from the 28 at 18:00 until the 29 at 18:00 UTC


281658Z 2818/2918 22012KT 9999 FEW020 SCT030
TEMPO 2818/2824 6000 SHRA
PROB30
TEMPO 2821/2824 23015G25KT 3000 +SHRA BKN014CB
BECMG 2905/2908 16005KT
BECMG 2908/2911 07010KT
TEMPO 2908/2912 7000 RA BKN012
PROB40
TEMPO 2910/2912 3000 +RA BKN008
BECMG 2912/2915 BKN012
TEMPO 2912/2918 6000 RA BKN008
PROB40
TEMPO 2912/2916 3000 +RA BR BKN004
BECMG 2916/2918 21012KT
PROB40
TEMPO 2916/2918 22015G25KT
ATIS : +44 141 887 7449



MET'MAP, your aeronautical weather chart ! - Copyright ORBIFLY December 2007 - Disclaimer

ORBIFLY MET'MAP TEAM :

Programming & Development : Alexandra Zaïnal
Concept & original design : Baudouin d'Aumeries
Assistance for programming : Marc-Olivier Méhu
Technical & hardware support : Manuel Goepfert

Contact : metmap@orbifly.com




SOURCES & CREDITS :

   NOAA